Latest Weather Observations for Mount Boyce

IDN60901

Issued at 9:21 pm EDT Thursday 18 December 2014 (issued every 10 minutes, with the page automatically refreshed every 10 minutes)

About weather observations | Map of Sydney area stations | Latest observations for Sydney area | Other Formats
Station Details ID: 063292 Name: MOUNT BOYCE AWS Lat: -33.62 Lon: 150.27 Height: 1080.0 m
Data from the previous 72 hours. | See also: Recent months at Mount Boyce
Date/Time
EDT
Tmp

°C
App
Tmp
°C
Dew
Point
°C
Rel
Hum
%
Delta-T

°C
Wind Press
QNH
hPa
Press
MSL
hPa
Rain
since
9 am
mm
Dir
 
Spd
km/h
Gust
km/h
Spd
kts
Gust
kts
18/09:00pm 19.8 13.9 -1.9 23 9.8 WSW 19 28 10 15 - - 0.0
18/08:30pm 20.4 14.0 -2.0 22 10.1 WSW 22 37 12 20 - - 0.0
18/08:02pm 21.2 13.5 -2.6 20 10.7 WSW 28 48 15 26 - - 0.0
18/08:00pm 21.3 14.1 -1.9 21 10.6 WSW 26 44 14 24 - - 0.0
18/07:32pm 22.3 14.8 -1.7 20 11.1 WSW 28 46 15 25 - - 0.0
18/07:30pm 22.4 14.4 -2.3 19 11.3 WSW 30 46 16 25 - - 0.0
18/07:00pm 23.1 14.0 -3.3 17 11.9 WSW 35 65 19 35 - - 0.0
18/06:30pm 24.2 15.8 -2.4 17 12.3 WSW 32 50 17 27 - - 0.0
18/05:31pm 24.9 16.4 -3.5 15 12.9 WSW 32 54 17 29 - - 0.0
18/05:30pm 25.1 17.0 -3.3 15 13.0 WSW 30 46 16 25 - - 0.0
18/05:00pm 25.7 17.5 -1.2 17 12.9 WSW 32 54 17 29 - - 0.0
18/04:44pm 25.8 18.5 -0.3 18 12.7 W 28 46 15 25 - - 0.0
18/04:30pm 26.3 19.7 2.3 21 12.3 WSW 26 54 14 29 - - 0.0
18/04:15pm 25.7 18.6 1.1 20 12.3 W 28 56 15 30 - - 0.0
18/04:00pm 25.3 18.7 2.1 22 11.7 WSW 26 43 14 23 - - 0.0
18/03:32pm 25.8 19.1 3.7 24 11.5 W 28 46 15 25 - - 0.0
18/03:30pm 26.0 20.2 4.5 25 11.4 W 24 41 13 22 - - 0.0
18/03:00pm 24.7 19.6 6.0 30 10.1 WNW 22 37 12 20 - - 0.0
18/02:42pm 25.2 20.0 5.4 28 10.6 W 22 46 12 25 - - 0.0
18/02:30pm 25.5 21.7 7.6 32 10.0 W 17 30 9 16 - - 0.0
18/02:00pm 25.0 19.2 6.2 30 10.2 WSW 26 41 14 22 - - 0.0
18/01:30pm 23.9 17.9 5.3 30 9.9 W 26 43 14 23 - - 0.0
18/01:00pm 23.5 20.5 10.6 44 7.5 W 17 26 9 14 - - 0.0
18/12:30pm 22.3 20.8 12.0 52 6.1 W 11 22 6 12 - - 0.0
18/12:00pm 20.8 19.8 12.2 58 5.1 W 9 13 5 7 - - 0.0
18/11:30am 19.4 19.5 13.8 70 3.4 WNW 6 13 3 7 - - 0.0
18/11:00am 18.3 18.6 14.6 79 2.3 NNW 6 9 3 5 - - 0.0
18/10:46am 17.0 16.8 13.7 81 2.0 NNW 7 13 4 7 - - 0.0
18/10:30am 16.2 16.1 14.0 87 1.3 NNW 7 13 4 7 - - 0.0
18/10:19am 15.9 16.1 14.6 92 0.8 NNW 7 15 4 8 - - 0.0
18/10:00am 13.9 13.3 13.6 98 0.2 NNE 9 15 5 8 - - 0.0
18/09:30am 14.0 13.5 13.8 99 0.1 NE 9 19 5 10 - - 0.0
18/09:00am 13.1 11.9 12.9 99 0.1 NE 11 22 6 12 - - 1.4
18/08:30am 13.4 13.1 13.2 99 0.1 ENE 7 17 4 9 - - 1.4
18/08:00am 13.0 12.2 12.8 99 0.1 NE 9 19 5 10 - - 1.4
18/07:30am 12.5 11.5 12.3 99 0.1 NE 9 20 5 11 - - 1.4
18/07:00am 12.0 10.8 11.7 98 0.2 NE 9 15 5 8 - - 1.4
18/06:46am 11.9 11.1 11.6 98 0.2 ENE 7 15 4 8 - - 1.4
18/06:30am 12.1 11.3 11.8 98 0.2 ENE 7 13 4 7 - - 1.2
18/05:57am 11.9 11.1 11.6 98 0.2 ENE 7 13 4 7 - - 1.2
18/05:30am 11.5 10.2 11.2 98 0.2 NE 9 15 5 8 - - 1.2
18/05:00am 11.5 10.6 11.2 98 0.2 NE 7 13 4 7 - - 1.0
18/04:30am 11.3 10.3 11.0 98 0.2 NE 7 15 4 8 - - 1.0
18/04:00am 11.3 10.3 11.0 98 0.2 ENE 7 15 4 8 - - 1.0
18/03:30am 11.2 9.8 10.9 98 0.2 NE 9 17 5 9 - - 1.0
18/03:10am 11.1 9.3 10.8 98 0.2 ENE 11 24 6 13 - - 1.0
18/03:00am 11.1 9.3 10.8 98 0.2 ENE 11 22 6 12 - - 0.8
18/02:37am 11.1 9.7 10.8 98 0.2 ENE 9 17 5 9 - - 0.8
18/02:30am 11.2 9.8 10.9 98 0.2 ENE 9 20 5 11 - - 0.8
18/02:00am 11.1 9.6 10.6 97 0.3 NE 9 19 5 10 - - 0.6
18/01:30am 11.2 10.1 10.7 97 0.3 ENE 7 13 4 7 - - 0.6
18/01:00am 11.2 9.7 10.7 97 0.3 ENE 9 19 5 10 - - 0.6
18/12:30am 11.3 10.2 10.8 97 0.3 ENE 7 17 4 9 - - 0.4
 
Date/Time
EDT
Tmp

°C
App
Tmp
°C
Dew
Point
°C
Rel
Hum
%
Delta-T

°C
Wind Press
QNH
hPa
Press
MSL
hPa
Rain
since
9 am
mm
Dir
 
Spd
km/h
Gust
km/h
Spd
kts
Gust
kts
17/11:30pm 11.3 9.8 10.7 96 0.3 ENE 9 17 5 9 - - 0.2
17/11:00pm 11.4 10.0 10.8 96 0.3 ENE 9 17 5 9 - - 0.2
17/10:37pm 11.5 9.4 11.0 97 0.3 ENE 13 19 7 10 - - 0.2
17/10:30pm 11.6 9.9 11.1 97 0.3 ENE 11 17 6 9 - - 0.2
17/10:00pm 11.4 10.0 10.9 97 0.3 ENE 9 17 5 9 - - 0.2
17/09:32pm 11.3 9.5 10.7 96 0.3 ENE 11 19 6 10 - - 0.0
17/09:30pm 11.3 9.5 10.7 96 0.3 ENE 11 22 6 12 - - 0.0
17/09:00pm 11.5 9.7 10.7 95 0.4 ENE 11 20 6 11 - - 0.0
17/08:30pm 11.5 9.6 10.4 93 0.6 ENE 11 20 6 11 - - 0.0
17/08:00pm 12.2 10.2 10.1 87 1.1 ENE 11 24 6 13 - - 0.0
17/07:42pm 12.4 10.0 10.0 85 1.3 ENE 13 22 7 12 - - 0.0
17/07:30pm 12.7 9.8 9.7 82 1.6 ENE 15 28 8 15 - - 0.0
17/07:00pm 15.2 12.8 10.2 72 2.8 ENE 13 20 7 11 - - 0.0
17/06:30pm 17.4 15.1 10.5 64 3.9 ENE 13 20 7 11 - - 0.0
17/06:00pm 18.5 16.4 11.3 63 4.1 ENE 13 22 7 12 - - 0.0
17/05:42pm 17.9 15.3 10.8 63 4.0 ENE 15 24 8 13 - - 0.0
17/05:30pm 18.5 15.7 11.3 63 4.1 ENE 17 24 9 13 - - 0.0
17/05:00pm 19.2 16.5 11.7 62 4.4 ENE 17 26 9 14 - - 0.0
17/04:30pm 19.8 17.8 12.6 63 4.3 ENE 15 24 8 13 - - 0.0
17/04:00pm 20.6 18.6 12.8 61 4.6 ENE 15 24 8 13 - - 0.0
17/03:30pm 20.4 17.8 12.1 59 4.9 ENE 17 26 9 14 - - 0.0
17/03:00pm 21.8 20.3 14.2 62 4.7 ENE 15 24 8 13 - - 0.0
17/02:30pm 20.9 18.6 13.1 61 4.7 ENE 17 28 9 15 - - 0.0
17/02:00pm 21.1 19.3 13.3 61 4.7 ENE 15 26 8 14 - - 0.0
17/01:30pm 21.6 19.6 14.0 62 4.6 ENE 17 24 9 13 - - 0.0
17/01:00pm 20.9 19.6 13.6 63 4.4 ENE 13 24 7 13 - - 0.0
17/12:30pm 21.5 19.5 13.9 62 4.6 ENE 17 28 9 15 - - 0.0
17/12:00pm 20.3 18.8 13.0 63 4.4 ENE 13 22 7 12 - - 0.0
17/11:30am 20.8 20.0 14.0 65 4.1 ENE 11 19 6 10 - - 0.0
17/11:00am 20.2 18.6 12.9 63 4.3 ENE 13 22 7 12 - - 0.0
17/10:30am 20.8 19.6 12.8 60 4.8 ENE 11 17 6 9 - - 0.0
17/10:00am 20.6 20.1 12.6 60 4.7 NE 7 13 4 7 - - 0.0
17/09:30am 20.2 19.2 11.1 56 5.3 NW 7 11 4 6 - - 0.0
17/09:00am 19.8 17.1 3.9 35 8.0 W 7 13 4 7 - - 0.0
17/08:30am 19.0 16.1 4.4 38 7.4 W 9 13 5 7 - - 0.0
17/08:00am 18.5 16.3 5.4 42 6.7 W 6 7 3 4 - - 0.0
17/07:30am 17.7 15.2 4.6 42 6.6 WNW 7 11 4 6 - - 0.0
17/07:00am 17.0 13.9 3.7 41 6.6 W 9 11 5 6 - - 0.0
17/06:30am 16.6 13.4 3.0 40 6.6 WNW 9 13 5 7 - - 0.0
17/06:00am 16.8 13.6 2.8 39 6.8 W 9 13 5 7 - - 0.0
17/05:30am 17.2 13.4 2.0 36 7.3 W 11 15 6 8 - - 0.0
17/05:00am 18.0 13.5 1.9 34 7.7 W 15 20 8 11 - - 0.0
17/04:30am 18.3 13.5 2.6 35 7.6 WSW 17 22 9 12 - - 0.0
17/04:00am 18.6 14.1 2.4 34 7.9 WSW 15 20 8 11 - - 0.0
17/03:30am 18.8 14.3 2.2 33 8.0 WSW 15 24 8 13 - - 0.0
17/03:00am 19.8 14.4 1.3 29 8.9 W 19 30 10 16 - - 0.0
17/02:30am 21.4 15.1 1.6 27 9.7 W 24 37 13 20 - - 0.0
17/02:00am 21.4 16.2 0.0 24 10.1 WNW 17 33 9 18 - - 0.0
17/01:30am 20.1 15.6 -2.9 21 10.2 WNW 11 20 6 11 - - 0.0
17/01:00am 21.2 15.9 -4.0 18 11.0 WNW 15 20 8 11 - - 0.0
17/12:30am 22.2 16.7 -5.6 15 11.9 NW 15 24 8 13 - - 0.0
17/12:00am 22.7 16.8 -5.2 15 12.1 W 17 30 9 16 - - 0.0
 
Date/Time
EDT
Tmp

°C
App
Tmp
°C
Dew
Point
°C
Rel
Hum
%
Delta-T

°C
Wind Press
QNH
hPa
Press
MSL
hPa
Rain
since
9 am
mm
Dir
 
Spd
km/h
Gust
km/h
Spd
kts
Gust
kts
16/11:30pm 23.1 16.7 -4.9 15 12.2 W 20 30 11 16 - - 0.0
16/11:00pm 22.7 16.8 -5.2 15 12.1 W 17 26 9 14 - - 0.0
16/10:30pm 22.1 16.6 -5.7 15 11.9 W 15 22 8 12 - - 0.0
16/10:00pm 22.2 16.3 -5.6 15 11.9 WSW 17 22 9 12 - - 0.0
16/09:30pm 23.0 16.5 -5.9 14 12.4 WSW 20 28 11 15 - - 0.0
16/09:00pm 23.6 16.7 -6.4 13 12.8 WSW 22 30 12 16 - - 0.0
16/08:30pm 24.5 17.5 -6.7 12 13.4 W 22 35 12 19 - - 0.0
16/08:00pm 25.4 15.8 -8.4 10 14.1 WSW 35 59 19 32 - - 0.0
16/07:30pm 26.7 17.6 -7.4 10 14.7 WSW 33 57 18 31 - - 0.0
16/07:00pm 27.5 19.8 -3.3 13 14.4 W 28 46 15 25 - - 0.0
16/06:30pm 27.9 18.9 -3.0 13 14.5 WSW 35 59 19 32 - - 0.0
16/06:00pm 28.3 18.8 -0.8 15 14.3 W 39 67 21 36 - - 0.0
16/05:30pm 28.5 18.6 -0.6 15 14.3 W 41 67 22 36 - - 0.0
16/05:00pm 28.8 18.7 1.3 17 14.0 W 44 72 24 39 - - 0.0
16/04:56pm 28.7 18.2 1.3 17 14.0 W 46 72 25 39 - - 0.0
16/04:55pm 28.6 18.1 1.2 17 13.9 W 46 72 25 39 - - 0.0
16/04:43pm 28.9 21.7 5.7 23 12.8 W 33 72 18 39 - - 0.0
16/04:34pm 28.8 22.8 8.5 28 11.7 W 30 48 16 26 - - 0.0
16/04:30pm 28.4 21.9 8.1 28 11.6 WNW 32 48 17 26 - - 0.0
16/04:00pm 27.0 19.8 7.5 29 10.9 WNW 35 59 19 32 - - 0.0
16/03:30pm 26.5 19.7 7.0 29 10.8 W 32 63 17 34 - - 0.0
16/03:00pm 26.4 19.8 5.9 27 11.2 WNW 30 48 16 26 - - 0.0
16/02:30pm 26.5 20.4 6.5 28 11.0 WNW 28 50 15 27 - - 0.0
16/02:00pm 27.4 21.4 8.8 31 10.7 WNW 30 50 16 27 - - 0.0
16/01:38pm 27.2 21.4 8.1 30 10.8 NW 28 52 15 28 - - 0.0
16/01:30pm 26.1 22.0 7.7 31 10.3 WNW 19 35 10 19 - - 0.0
16/01:00pm 24.6 20.8 7.7 34 9.4 NW 17 28 9 15 - - 0.0
16/12:30pm 25.2 21.3 7.3 32 9.9 NNW 17 35 9 19 - - 0.0
16/12:00pm 25.6 21.2 6.7 30 10.4 NW 19 33 10 18 - - 0.0
16/11:30am 25.3 20.5 7.4 32 9.9 NW 22 44 12 24 - - 0.0
16/11:00am 24.2 20.7 7.4 34 9.3 NW 15 30 8 16 - - 0.0
16/10:30am 23.6 20.9 8.8 39 8.3 WNW 13 24 7 13 - - 0.0
16/10:00am 22.0 17.0 6.3 36 8.4 WNW 22 39 12 21 - - 0.0
16/09:30am 21.1 15.9 5.5 36 8.2 WNW 22 39 12 21 - - 0.0
16/09:00am 21.2 16.6 6.3 38 7.9 NW 20 35 11 19 - - 0.0
16/08:30am 18.1 14.6 7.2 49 5.8 NW 15 26 8 14 - - 0.0
16/08:00am 19.6 17.0 6.3 42 7.0 NNW 9 20 5 11 - - 0.0
16/07:30am 18.4 14.6 5.9 44 6.5 NE 15 30 8 16 - - 0.0
16/07:00am 17.5 14.8 7.5 52 5.3 NE 11 24 6 13 - - 0.0
16/06:30am 15.2 12.3 8.2 63 3.7 ENE 13 17 7 9 - - 0.0
16/06:00am 15.7 12.2 7.0 56 4.5 ENE 15 22 8 12 - - 0.0
16/05:30am 16.0 13.1 8.2 60 4.2 NE 13 19 7 10 - - 0.0
16/05:00am 15.7 13.1 7.7 59 4.2 ENE 11 17 6 9 - - 0.0
16/04:30am 16.7 14.0 5.6 48 5.7 NE 9 15 5 8 - - 0.0
16/04:00am 17.4 14.2 5.0 44 6.3 NNE 11 17 6 9 - - 0.0
16/03:30am 16.5 14.0 8.2 58 4.5 NE 11 19 6 10 - - 0.0
16/03:00am 18.0 14.7 6.5 47 6.0 NNE 13 17 7 9 - - 0.0
16/02:30am 17.6 14.6 7.9 53 5.2 N 13 22 7 12 - - 0.0
16/02:00am 15.6 14.0 11.4 76 2.4 NE 11 17 6 9 - - 0.0
16/01:30am 16.0 15.1 11.4 74 2.6 NE 7 9 4 5 - - 0.0
16/01:00am 16.9 15.6 11.4 70 3.1 N 9 17 5 9 - - 0.0
16/12:30am 15.6 13.9 12.4 81 1.9 NE 13 17 7 9 - - 0.0
16/12:00am 15.0 13.7 12.5 85 1.4 NE 11 17 6 9 - - 0.0
 
Date/Time
EDT
Tmp

°C
App
Tmp
°C
Dew
Point
°C
Rel
Hum
%
Delta-T

°C
Wind Press
QNH
hPa
Press
MSL
hPa
Rain
since
9 am
mm
Dir
 
Spd
km/h
Gust
km/h
Spd
kts
Gust
kts
15/11:30pm 14.6 12.9 12.5 87 1.2 NE 13 17 7 9 - - 0.0
15/11:00pm 14.3 12.9 12.2 87 1.2 ENE 11 15 6 8 - - 0.0
15/10:30pm 14.7 12.9 12.2 85 1.4 ENE 13 17 7 9 - - 0.0
15/10:00pm 15.1 13.8 12.4 84 1.6 ENE 11 17 6 9 - - 0.0
15/09:30pm 15.5 14.1 12.3 81 1.8 ENE 11 15 6 8 - - 0.0

Latest Capital City Observations: Canberra | Sydney | Melbourne | Brisbane | Adelaide | Perth | Hobart | Darwin

Other Formats:

Comma delimited format used in spreadsheet applications
http://www.bom.gov.au/fwo/IDN60901/IDN60901.94743.axf

JavaScript Object Notation format (JSON) in row-major order
http://www.bom.gov.au/fwo/IDN60901/IDN60901.94743.json